createdAt,value
2017-12-29T00:01:12.185Z,99502.67
2017-12-29T00:03:40.534Z,99505.33
2017-12-29T00:06:09.291Z,99507.50
2017-12-29T00:08:37.675Z,99505.76
2017-12-29T00:11:06.126Z,99509.79
2017-12-29T00:13:34.468Z,99514.54
2017-12-29T00:16:04.427Z,99518.90
2017-12-29T00:18:32.827Z,99522.34
2017-12-29T00:21:01.205Z,99525.80
2017-12-29T00:23:29.572Z,99527.13
2017-12-29T00:25:57.909Z,99523.23
2017-12-29T00:28:26.735Z,99522.80
2017-12-29T00:30:55.145Z,99525.83
2017-12-29T00:33:23.499Z,99534.06
2017-12-29T00:35:51.882Z,99530.16
2017-12-29T00:38:20.263Z,99532.33
2017-12-29T00:40:48.649Z,99526.67
2017-12-29T00:43:17.009Z,99536.23
2017-12-29T00:45:45.405Z,99534.91
2017-12-29T00:48:13.751Z,99545.30
2017-12-29T00:50:42.091Z,99545.19
2017-12-29T00:53:10.565Z,99547.91
2017-12-29T00:55:38.910Z,99550.52
2017-12-29T00:58:07.275Z,99548.80
2017-12-29T01:00:35.671Z,99549.65
2017-12-29T01:03:04.052Z,99556.97
2017-12-29T01:05:32.403Z,99553.97
2017-12-29T01:08:00.763Z,99557.46
2017-12-29T01:10:29.132Z,99553.53
2017-12-29T01:12:57.874Z,99567.86
2017-12-29T01:15:26.257Z,99565.27
2017-12-29T01:17:54.631Z,99564.41
2017-12-29T01:20:22.972Z,99566.56
2017-12-29T01:22:51.391Z,99570.91
2017-12-29T01:25:19.756Z,99572.66
2017-12-29T01:27:48.100Z,99582.20
2017-12-29T01:30:16.464Z,99570.86
2017-12-29T01:32:45.388Z,99570.01
2017-12-29T01:35:13.727Z,99573.48
2017-12-29T01:37:42.504Z,99573.48
2017-12-29T01:40:10.852Z,99572.20
2017-12-29T01:42:39.203Z,99576.11
2017-12-29T01:45:07.580Z,99577.88
2017-12-29T01:47:53.710Z,99577.38
2017-12-29T01:50:22.084Z,99577.83
2017-12-29T01:52:50.474Z,99589.11
2017-12-29T01:55:19.075Z,99592.16
2017-12-29T01:57:47.507Z,99597.41
2017-12-29T02:00:16.116Z,99593.07
2017-12-29T02:02:44.496Z,99595.25
2017-12-29T02:05:12.886Z,99601.73
2017-12-29T02:07:41.249Z,99611.30
2017-12-29T02:10:09.629Z,99611.73
2017-12-29T02:12:38.296Z,99616.94
2017-12-29T02:15:06.654Z,99620.40
2017-12-29T02:17:35.022Z,99620.84
2017-12-29T02:20:03.781Z,99624.33
2017-12-29T02:22:32.140Z,99627.77
2017-12-29T02:25:00.538Z,99630.40
2017-12-29T02:27:29.208Z,99638.22
2017-12-29T02:29:57.558Z,99637.35
2017-12-29T02:32:25.912Z,99641.23
2017-12-29T02:34:54.748Z,99648.17
2017-12-29T02:37:23.217Z,99642.97
2017-12-29T02:39:51.569Z,99649.92
2017-12-29T02:42:20.532Z,99658.63
2017-12-29T02:44:48.894Z,99659.05
2017-12-29T02:47:18.232Z,99665.98
2017-12-29T02:49:47.012Z,99659.02
2017-12-29T02:52:15.857Z,99659.90
2017-12-29T02:54:45.446Z,99665.53
2017-12-29T02:57:13.863Z,99669.45
2017-12-29T02:59:42.227Z,99672.50
2017-12-29T03:02:10.589Z,99678.11
2017-12-29T03:04:38.956Z,99669.47
2017-12-29T03:07:07.305Z,99672.05
2017-12-29T03:09:36.041Z,99678.14
2017-12-29T03:12:04.429Z,99676.41
2017-12-29T03:14:32.791Z,99673.78
2017-12-29T03:17:01.157Z,99680.31
2017-12-29T03:19:30.287Z,99681.52
2017-12-29T03:21:58.657Z,99690.12
2017-12-29T03:24:27.472Z,99690.56
2017-12-29T03:26:55.841Z,99687.58
2017-12-29T03:29:24.200Z,99695.40
2017-12-29T03:31:52.590Z,99702.82
2017-12-29T03:34:21.085Z,99712.51
2017-12-29T03:36:49.646Z,99716.98
2017-12-29T03:39:18.042Z,99708.81
2017-12-29T03:41:46.509Z,99710.89
2017-12-29T03:44:14.876Z,99716.14
2017-12-29T03:46:43.282Z,99716.17
2017-12-29T03:49:12.081Z,99720.19
2017-12-29T03:51:40.649Z,99710.20
2017-12-29T03:54:09.277Z,99720.48
2017-12-29T03:56:37.673Z,99716.52
2017-12-29T03:59:06.106Z,99714.00
2017-12-29T04:01:34.506Z,99717.38
2017-12-29T04:04:03.288Z,99714.11
2017-12-29T04:06:32.638Z,99716.24
2017-12-29T04:09:00.988Z,99720.97
2017-12-29T04:11:29.381Z,99724.13
2017-12-29T04:13:57.791Z,99724.31
2017-12-29T04:16:26.169Z,99736.86
2017-12-29T04:18:55.310Z,99737.20
2017-12-29T04:21:24.152Z,99737.43
2017-12-29T04:23:52.506Z,99733.01
2017-12-29T04:26:20.881Z,99736.92
2017-12-29T04:28:49.234Z,99740.42
2017-12-29T04:31:18.036Z,99741.75
2017-12-29T04:33:46.608Z,99740.45
2017-12-29T04:36:15.104Z,99750.77
2017-12-29T04:38:43.533Z,99748.26
2017-12-29T04:41:11.998Z,99756.81
2017-12-29T04:43:40.504Z,99750.02
2017-12-29T04:46:09.081Z,99759.63
2017-12-29T04:48:38.974Z,99753.95
2017-12-29T04:51:07.357Z,99757.83
2017-12-29T04:53:35.706Z,99763.38
2017-12-29T04:56:04.244Z,99767.13
2017-12-29T04:58:32.700Z,99771.06
2017-12-29T05:01:02.413Z,99768.80
2017-12-29T05:03:30.933Z,99772.19
2017-12-29T05:05:59.680Z,99771.84
2017-12-29T05:08:28.084Z,99771.38
2017-12-29T05:10:56.452Z,99780.02
2017-12-29T05:13:25.018Z,99780.88
2017-12-29T05:15:53.452Z,99779.25
2017-12-29T05:18:22.535Z,99779.30
2017-12-29T05:20:51.283Z,99782.77
2017-12-29T05:23:19.679Z,99786.48
2017-12-29T05:25:48.046Z,99789.61
2017-12-29T05:28:16.532Z,99795.24
2017-12-29T05:30:45.091Z,99793.14
2017-12-29T05:33:13.467Z,99787.52
2017-12-29T05:35:41.821Z,99788.13
2017-12-29T05:38:10.245Z,99789.06
2017-12-29T05:40:38.621Z,99786.64
2017-12-29T05:43:07.062Z,99790.42
2017-12-29T05:45:35.662Z,99791.77
2017-12-29T05:48:04.085Z,99794.26
2017-12-29T05:50:32.561Z,99794.52
2017-12-29T05:53:00.904Z,99798.51
2017-12-29T05:55:29.674Z,99794.93
2017-12-29T05:57:58.047Z,99795.70
2017-12-29T06:00:27.821Z,99796.05
2017-12-29T06:02:56.198Z,99805.22
2017-12-29T06:05:24.580Z,99801.79
2017-12-29T06:07:52.934Z,99797.09
2017-12-29T06:10:21.320Z,99794.14
2017-12-29T06:12:50.455Z,99797.70
2017-12-29T06:15:19.293Z,99802.56
2017-12-29T06:17:47.660Z,99800.98
2017-12-29T06:20:16.132Z,99800.30
2017-12-29T06:22:44.500Z,99794.73
2017-12-29T06:25:12.876Z,99803.34
2017-12-29T06:27:42.995Z,99791.00
2017-12-29T06:30:11.421Z,99791.89
2017-12-29T06:32:39.792Z,99799.69
2017-12-29T06:35:08.136Z,99799.28
2017-12-29T06:37:36.557Z,99816.16
2017-12-29T06:40:05.210Z,99806.30
2017-12-29T06:42:34.858Z,99803.17
2017-12-29T06:45:03.866Z,99815.92
2017-12-29T06:47:32.531Z,99814.81
2017-12-29T06:50:00.907Z,99817.05
2017-12-29T06:52:29.252Z,99819.41
2017-12-29T06:54:58.086Z,99826.14
2017-12-29T06:57:26.429Z,99835.88
2017-12-29T06:59:54.829Z,99838.65
2017-12-29T07:02:23.197Z,99832.02
2017-12-29T07:04:51.580Z,99842.77
2017-12-29T07:07:19.932Z,99836.34
2017-12-29T07:09:48.305Z,99841.31
2017-12-29T07:12:17.981Z,99851.08
2017-12-29T07:14:46.320Z,99860.88
2017-12-29T07:17:14.817Z,99862.29
2017-12-29T07:19:43.167Z,99857.78
2017-12-29T07:22:11.637Z,99857.73
2017-12-29T07:24:40.345Z,99860.01
2017-12-29T07:27:08.698Z,99863.94
2017-12-29T07:29:37.051Z,99856.62
2017-12-29T07:32:05.904Z,99862.43
2017-12-29T07:34:34.259Z,99856.61
2017-12-29T07:37:02.607Z,99862.33
2017-12-29T07:39:31.455Z,99867.11
2017-12-29T07:41:59.824Z,99868.91
2017-12-29T07:44:28.177Z,99873.72
2017-12-29T07:46:56.549Z,99872.37
2017-12-29T07:49:24.956Z,99871.01
2017-12-29T07:51:53.344Z,99881.22
2017-12-29T07:54:22.360Z,99874.81
2017-12-29T07:56:51.164Z,99885.76
2017-12-29T07:59:20.008Z,99889.74
2017-12-29T08:01:48.391Z,99891.57
2017-12-29T08:04:16.777Z,99895.51
2017-12-29T08:06:45.252Z,99891.61
2017-12-29T08:09:14.507Z,99895.44
2017-12-29T08:11:43.333Z,99907.13
2017-12-29T08:14:11.687Z,99908.87
2017-12-29T08:16:40.110Z,99914.59
2017-12-29T08:19:08.470Z,99910.73
2017-12-29T08:21:36.870Z,99917.66
2017-12-29T08:24:05.653Z,99923.27
2017-12-29T08:26:34.008Z,99930.67
2017-12-29T08:29:02.415Z,99932.83
2017-12-29T08:31:30.798Z,99935.08
2017-12-29T08:33:59.353Z,99930.70
2017-12-29T08:36:27.719Z,99932.50
2017-12-29T08:38:57.187Z,99936.41
2017-12-29T08:41:26.045Z,99937.77
2017-12-29T08:43:54.402Z,99945.17
2017-12-29T08:46:22.806Z,99946.97
2017-12-29T08:48:51.162Z,99956.05
2017-12-29T08:51:20.115Z,99955.13
2017-12-29T08:53:48.905Z,99962.42
2017-12-29T08:56:17.654Z,99962.87
2017-12-29T08:58:46.006Z,99962.55
2017-12-29T09:01:14.396Z,99960.47
2017-12-29T09:03:42.752Z,99955.26
2017-12-29T09:06:11.093Z,99959.44
2017-12-29T09:08:39.932Z,99962.16
2017-12-29T09:11:08.273Z,99961.73
2017-12-29T09:13:37.014Z,99970.34
2017-12-29T09:16:05.372Z,99969.94
2017-12-29T09:18:33.721Z,99973.86
2017-12-29T09:21:02.068Z,99969.41
2017-12-29T09:23:30.437Z,99969.08
2017-12-29T09:25:58.933Z,99969.18
2017-12-29T09:28:27.285Z,99968.78
2017-12-29T09:30:55.657Z,99975.27
2017-12-29T09:33:24.037Z,99978.21
2017-12-29T09:35:52.384Z,99965.73
2017-12-29T09:38:20.749Z,99963.56
2017-12-29T09:40:49.477Z,99966.62
2017-12-29T09:43:17.822Z,99967.81
2017-12-29T09:45:46.313Z,99966.57
2017-12-29T09:48:14.726Z,99961.79
2017-12-29T09:50:43.563Z,99961.79
2017-12-29T09:53:12.397Z,99966.57
2017-12-29T09:55:40.747Z,99958.73
2017-12-29T09:58:09.100Z,99958.31
2017-12-29T10:00:37.860Z,99957.05
2017-12-29T10:03:06.268Z,99957.52
2017-12-29T10:05:35.110Z,99957.09
2017-12-29T10:08:03.471Z,99961.01
2017-12-29T10:10:31.873Z,99958.02
2017-12-29T10:13:00.248Z,99955.36
2017-12-29T10:15:28.636Z,99959.27
2017-12-29T10:17:57.000Z,99960.91
2017-12-29T10:20:25.364Z,99954.13
2017-12-29T10:22:53.745Z,99945.84
2017-12-29T10:25:22.105Z,99943.25
2017-12-29T10:27:50.463Z,99956.17
2017-12-29T10:30:19.228Z,99950.98
2017-12-29T10:32:47.581Z,99937.97
2017-12-29T10:35:15.923Z,99941.52
2017-12-29T10:37:44.344Z,99942.83
2017-12-29T10:40:12.695Z,99928.89
2017-12-29T10:42:41.099Z,99926.72
2017-12-29T10:45:09.463Z,99935.39
2017-12-29T10:47:37.816Z,99933.24
2017-12-29T10:50:06.244Z,99932.80
2017-12-29T10:52:34.612Z,99940.16
2017-12-29T10:55:02.962Z,99937.98
2017-12-29T10:57:31.312Z,99939.31
2017-12-29T11:00:00.085Z,99931.06
2017-12-29T11:02:28.460Z,99937.59
2017-12-29T11:04:56.814Z,99928.86
2017-12-29T11:07:25.202Z,99930.17
2017-12-29T11:09:53.547Z,99917.05
2017-12-29T11:12:22.151Z,99928.36
2017-12-29T11:14:50.521Z,99936.11
2017-12-29T11:17:18.877Z,99928.69
2017-12-29T11:19:47.228Z,99924.27
2017-12-29T11:22:15.994Z,99918.25
2017-12-29T11:24:44.517Z,99912.20
2017-12-29T11:27:12.941Z,99910.78
2017-12-29T11:29:41.397Z,99904.75
2017-12-29T11:32:09.745Z,99894.77
2017-12-29T11:34:38.184Z,99888.86
2017-12-29T11:37:06.557Z,99888.79
2017-12-29T11:39:35.073Z,99888.55
2017-12-29T11:42:03.420Z,99890.79
2017-12-29T11:44:31.788Z,99892.61
2017-12-29T11:47:00.140Z,99891.30
2017-12-29T11:49:28.484Z,99890.84
2017-12-29T11:51:56.938Z,99887.81
2017-12-29T11:54:25.280Z,99890.05
2017-12-29T11:56:53.662Z,99880.91
2017-12-29T11:59:22.034Z,99886.49
2017-12-29T12:01:50.385Z,99879.02
2017-12-29T12:04:19.122Z,99873.05
2017-12-29T12:06:47.585Z,99879.11
2017-12-29T12:09:15.922Z,99878.23
2017-12-29T12:11:44.260Z,99873.89
2017-12-29T12:14:12.645Z,99867.03
2017-12-29T12:16:41.021Z,99860.94
2017-12-29T12:19:09.376Z,99873.63
2017-12-29T12:21:37.916Z,99866.71
2017-12-29T12:24:06.272Z,99874.11
2017-12-29T12:26:34.644Z,99878.47
2017-12-29T12:29:03.025Z,99879.77
2017-12-29T12:31:31.377Z,99877.10
2017-12-29T12:33:59.708Z,99891.84
2017-12-29T12:36:28.082Z,99889.28
2017-12-29T12:38:56.532Z,99884.06
2017-12-29T12:41:24.886Z,99880.58
2017-12-29T12:43:53.253Z,99867.44
2017-12-29T12:46:22.080Z,99871.91
2017-12-29T12:48:50.475Z,99874.94
2017-12-29T12:51:18.841Z,99882.77
2017-12-29T12:53:47.226Z,99883.61
2017-12-29T12:56:15.576Z,99877.11
2017-12-29T12:58:43.943Z,99881.46
2017-12-29T13:01:12.292Z,99888.72
2017-12-29T13:03:41.045Z,99876.23
2017-12-29T13:06:09.485Z,99882.32
2017-12-29T13:08:37.827Z,99894.37
2017-12-29T13:11:06.171Z,99882.67
2017-12-29T13:13:34.577Z,99886.22
2017-12-29T13:16:02.944Z,99888.84
2017-12-29T13:18:31.291Z,99890.15
2017-12-29T13:20:59.647Z,99884.50
2017-12-29T13:23:28.469Z,99885.38
2017-12-29T13:25:56.925Z,99883.19
2017-12-29T13:28:25.304Z,99887.05
2017-12-29T13:30:53.666Z,99890.16
2017-12-29T13:33:22.412Z,99889.27
2017-12-29T13:35:50.788Z,99885.78
2017-12-29T13:38:19.164Z,99895.99
2017-12-29T13:40:47.519Z,99892.52
2017-12-29T13:43:15.885Z,99892.19
2017-12-29T13:45:44.285Z,99896.92
2017-12-29T13:48:12.616Z,99899.52
2017-12-29T13:50:41.013Z,99886.89
2017-12-29T13:53:09.767Z,99900.39
2017-12-29T13:55:38.119Z,99901.30
2017-12-29T13:58:06.491Z,99911.30
2017-12-29T14:00:34.898Z,99914.84
2017-12-29T14:03:03.260Z,99909.64
2017-12-29T14:05:31.615Z,99912.67
2017-12-29T14:07:59.973Z,99906.58
2017-12-29T14:10:28.710Z,99913.06
2017-12-29T14:12:57.098Z,99909.97
2017-12-29T14:15:25.439Z,99914.39
2017-12-29T14:17:53.776Z,99914.30
2017-12-29T14:20:22.632Z,99923.97
2017-12-29T14:22:50.985Z,99918.22
2017-12-29T14:25:19.332Z,99919.09
2017-12-29T14:27:48.089Z,99915.16
2017-12-29T14:30:16.433Z,99916.07
2017-12-29T14:32:44.788Z,99909.44
2017-12-29T14:35:13.178Z,99910.76
2017-12-29T14:37:41.510Z,99912.84
2017-12-29T14:40:09.857Z,99908.66
2017-12-29T14:42:38.236Z,99909.07
2017-12-29T14:45:06.579Z,99915.59
2017-12-29T14:47:34.914Z,99909.55
2017-12-29T14:50:03.276Z,99914.68
2017-12-29T14:52:31.653Z,99918.13
2017-12-29T14:55:00.007Z,99915.09
2017-12-29T14:57:28.381Z,99913.77
2017-12-29T14:59:56.724Z,99915.06
2017-12-29T15:02:25.596Z,99915.01
2017-12-29T15:04:53.972Z,99913.67
2017-12-29T15:07:22.492Z,99910.46
2017-12-29T15:09:51.278Z,99915.22
2017-12-29T15:12:20.031Z,99915.14
2017-12-29T15:14:48.392Z,99916.26
2017-12-29T15:17:16.735Z,99917.97
2017-12-29T15:19:45.165Z,99927.19
2017-12-29T15:22:13.508Z,99917.52
2017-12-29T15:24:41.899Z,99921.80
2017-12-29T15:27:10.268Z,99917.41
2017-12-29T15:29:38.604Z,99922.75
2017-12-29T15:32:06.984Z,99925.23
2017-12-29T15:34:35.808Z,99932.28
2017-12-29T15:37:04.204Z,99925.50
2017-12-29T15:39:32.549Z,99929.78
2017-12-29T15:42:00.916Z,99926.80
2017-12-29T15:44:29.717Z,99924.05
2017-12-29T15:46:58.057Z,99921.45
2017-12-29T15:49:26.512Z,99925.63
2017-12-29T15:51:54.907Z,99927.92
2017-12-29T15:54:23.247Z,99927.14
2017-12-29T15:56:51.615Z,99933.40
2017-12-29T15:59:19.960Z,99926.53
2017-12-29T16:01:50.899Z,99928.66
2017-12-29T16:04:19.259Z,99921.56
2017-12-29T16:06:47.731Z,99920.23
2017-12-29T16:09:16.104Z,99918.49
2017-12-29T16:11:44.465Z,99908.97
2017-12-29T16:14:12.844Z,99913.08
2017-12-29T16:16:41.214Z,99909.59
2017-12-29T16:19:09.556Z,99913.16
2017-12-29T16:21:38.592Z,99908.72
2017-12-29T16:24:06.955Z,99916.09
2017-12-29T16:26:35.308Z,99924.68
2017-12-29T16:29:04.060Z,99918.84
2017-12-29T16:31:32.440Z,99915.73
2017-12-29T16:34:00.788Z,99912.98
2017-12-29T16:36:30.414Z,99910.47
2017-12-29T16:38:58.879Z,99908.01
2017-12-29T16:41:27.282Z,99904.30
2017-12-29T16:43:55.623Z,99905.59
2017-12-29T16:46:24.066Z,99898.47
2017-12-29T16:48:52.422Z,99900.08
2017-12-29T16:51:20.883Z,99899.82
2017-12-29T16:53:49.251Z,99896.05
2017-12-29T16:56:17.600Z,99894.36
2017-12-29T16:58:46.345Z,99890.56
2017-12-29T17:01:14.720Z,99886.76
2017-12-29T17:03:43.069Z,99889.46
2017-12-29T17:06:11.473Z,99889.66
2017-12-29T17:08:39.884Z,99887.44
2017-12-29T17:11:08.291Z,99883.91
2017-12-29T17:13:37.118Z,99887.80
2017-12-29T17:16:05.492Z,99875.97
2017-12-29T17:18:33.841Z,99876.02
2017-12-29T17:21:02.259Z,99882.09
2017-12-29T17:23:30.628Z,99877.89
2017-12-29T17:25:58.990Z,99880.73
2017-12-29T17:28:27.376Z,99870.30
2017-12-29T17:30:55.775Z,99873.70
2017-12-29T17:33:24.112Z,99859.18
2017-12-29T17:35:52.537Z,99859.03
2017-12-29T17:38:20.891Z,99860.11
2017-12-29T17:40:49.319Z,99852.98
2017-12-29T17:43:17.663Z,99850.72
2017-12-29T17:45:46.095Z,99848.55
2017-12-29T17:48:14.537Z,99842.95
2017-12-29T17:50:42.880Z,99847.02
2017-12-29T17:53:11.287Z,99840.73
2017-12-29T17:55:39.633Z,99839.30
2017-12-29T17:58:07.983Z,99837.11
2017-12-29T18:00:36.940Z,99842.69
2017-12-29T18:03:05.292Z,99846.12
2017-12-29T18:05:33.635Z,99838.16
2017-12-29T18:08:02.483Z,99842.38
2017-12-29T18:10:30.838Z,99834.38
2017-12-29T18:12:59.244Z,99835.92
2017-12-29T18:15:27.718Z,99833.19
2017-12-29T18:17:56.109Z,99833.42
2017-12-29T18:20:24.460Z,99832.61
2017-12-29T18:22:52.832Z,99824.38
2017-12-29T18:25:21.232Z,99835.81
2017-12-29T18:27:49.611Z,99819.25
2017-12-29T18:30:17.972Z,99820.22
2017-12-29T18:32:46.408Z,99819.06
2017-12-29T18:35:14.759Z,99826.00
2017-12-29T18:37:43.228Z,99811.67
2017-12-29T18:40:11.592Z,99805.38
2017-12-29T18:42:39.944Z,99809.95
2017-12-29T18:45:08.326Z,99800.12
2017-12-29T18:47:36.748Z,99798.77
2017-12-29T18:50:05.089Z,99805.09
2017-12-29T18:52:33.464Z,99797.19
2017-12-29T18:55:01.877Z,99804.47
2017-12-29T18:57:30.265Z,99807.98
2017-12-29T18:59:58.676Z,99803.79
2017-12-29T19:02:27.140Z,99798.52
2017-12-29T19:04:55.483Z,99797.19
2017-12-29T19:07:23.843Z,99802.18
2017-12-29T19:09:52.180Z,99805.03
2017-12-29T19:12:20.553Z,99807.49
2017-12-29T19:14:49.013Z,99803.87
2017-12-29T19:17:17.356Z,99811.69
2017-12-29T19:19:45.697Z,99805.01
2017-12-29T19:22:14.164Z,99807.96
2017-12-29T19:24:42.522Z,99815.19
2017-12-29T19:27:10.874Z,99808.30
2017-12-29T19:29:39.257Z,99807.62
2017-12-29T19:32:07.599Z,99800.47
2017-12-29T19:34:36.350Z,99794.36
2017-12-29T19:37:04.712Z,99795.34
2017-12-29T19:39:33.115Z,99799.59
2017-12-29T19:42:01.468Z,99796.88
2017-12-29T19:44:29.965Z,99794.55
2017-12-29T19:46:58.316Z,99799.02
2017-12-29T19:49:26.669Z,99799.58
2017-12-29T19:51:55.420Z,99799.96
2017-12-29T19:54:23.782Z,99795.05
2017-12-29T19:56:52.127Z,99795.37
2017-12-29T19:59:20.537Z,99793.55
2017-12-29T20:01:48.902Z,99797.31
2017-12-29T20:04:17.283Z,99796.63
2017-12-29T20:06:45.662Z,99790.16
2017-12-29T20:09:14.100Z,99783.61
2017-12-29T20:11:42.847Z,99787.86
2017-12-29T20:14:11.209Z,99785.19
2017-12-29T20:16:39.560Z,99781.45
2017-12-29T20:19:07.913Z,99791.78
2017-12-29T20:21:36.284Z,99789.75
2017-12-29T20:24:04.652Z,99796.41
2017-12-29T20:26:33.013Z,99793.52
2017-12-29T20:29:01.476Z,99791.89
2017-12-29T20:31:29.888Z,99775.66
2017-12-29T20:33:58.236Z,99773.13
2017-12-29T20:36:26.603Z,99781.59
2017-12-29T20:38:55.040Z,99779.66
2017-12-29T20:41:23.392Z,99768.91
2017-12-29T20:43:51.762Z,99772.73
2017-12-29T20:46:20.132Z,99768.17
2017-12-29T20:48:48.488Z,99763.38
2017-12-29T20:51:17.256Z,99762.03
2017-12-29T20:53:45.699Z,99768.47
2017-12-29T20:56:14.069Z,99763.19
2017-12-29T20:58:42.432Z,99761.52
2017-12-29T21:01:10.783Z,99758.63
2017-12-29T21:03:39.628Z,99760.00
2017-12-29T21:06:08.016Z,99756.75
2017-12-29T21:08:36.387Z,99765.52
2017-12-29T21:11:04.739Z,99765.06
2017-12-29T21:13:33.112Z,99775.16
2017-12-29T21:16:01.524Z,99766.31
2017-12-29T21:18:29.986Z,99771.44
2017-12-29T21:20:58.544Z,99775.30
2017-12-29T21:23:26.911Z,99774.35
2017-12-29T21:25:55.299Z,99770.78
2017-12-29T21:28:23.688Z,99771.63
2017-12-29T21:30:52.044Z,99784.84
2017-12-29T21:33:20.798Z,99781.56
2017-12-29T21:35:49.197Z,99778.05
2017-12-29T21:38:17.549Z,99777.19
2017-12-29T21:40:45.901Z,99774.21
2017-12-29T21:43:14.270Z,99785.11
2017-12-29T21:45:42.614Z,99781.69
2017-12-29T21:48:11.344Z,99782.05
2017-12-29T21:50:39.755Z,99774.89
2017-12-29T21:53:08.123Z,99774.73
2017-12-29T21:55:36.483Z,99771.44
2017-12-29T21:58:04.880Z,99765.91
2017-12-29T22:00:33.219Z,99767.51
2017-12-29T22:03:01.592Z,99764.13
2017-12-29T22:05:30.202Z,99769.42
2017-12-29T22:07:58.568Z,99774.08
2017-12-29T22:10:26.986Z,99779.45
2017-12-29T22:12:55.374Z,99789.84
2017-12-29T22:15:23.811Z,99794.29
2017-12-29T22:17:52.160Z,99784.55
2017-12-29T22:20:21.128Z,99781.70
2017-12-29T22:22:49.500Z,99769.45
2017-12-29T22:25:17.844Z,99775.53
2017-12-29T22:27:46.212Z,99769.97
2017-12-29T22:30:14.727Z,99769.67
2017-12-29T22:32:43.072Z,99781.48
2017-12-29T22:35:11.456Z,99769.97
2017-12-29T22:37:39.871Z,99771.41
2017-12-29T22:40:08.248Z,99766.73
2017-12-29T22:42:36.629Z,99760.21
2017-12-29T22:45:04.993Z,99756.34
2017-12-29T22:47:33.333Z,99768.27
2017-12-29T22:50:02.085Z,99767.55
2017-12-29T22:52:30.520Z,99766.48
2017-12-29T22:54:58.868Z,99766.70
2017-12-29T22:57:27.716Z,99757.42
2017-12-29T22:59:56.087Z,99761.60
2017-12-29T23:02:24.616Z,99761.91
2017-12-29T23:04:53.381Z,99761.03
2017-12-29T23:07:21.738Z,99765.01
2017-12-29T23:09:50.193Z,99762.61
2017-12-29T23:12:18.677Z,99762.48
2017-12-29T23:14:47.185Z,99765.61
2017-12-29T23:17:15.560Z,99759.89
2017-12-29T23:19:44.229Z,99754.52
2017-12-29T23:22:12.623Z,99759.11
2017-12-29T23:24:41.004Z,99766.38
2017-12-29T23:27:09.422Z,99758.13
2017-12-29T23:29:38.172Z,99752.51
2017-12-29T23:32:06.528Z,99753.78
2017-12-29T23:34:34.913Z,99770.92
2017-12-29T23:37:03.259Z,99761.14
2017-12-29T23:39:31.680Z,99758.43
2017-12-29T23:42:00.057Z,99763.77
2017-12-29T23:44:28.458Z,99760.91
2017-12-29T23:46:56.809Z,99769.06
2017-12-29T23:49:25.307Z,99765.48
2017-12-29T23:51:53.656Z,99766.38
2017-12-29T23:54:22.002Z,99768.90
2017-12-29T23:56:50.771Z,99774.20
2017-12-29T23:59:19.328Z,99770.20
